首页
METAR-TAF:

METAR-TAF

机场 :

Worthington Municipal Airport

Worthington, 明尼蘇達州, 美国

纬度: 43-39N, 经度: 095-35W, 海拔: 480米

当前天气观测

该预报发布于45分钟前的04:56 UTC
风速6节,风向西
温度 26°C
湿度 89%
气压 1005 hPa
能見度: 16.1公里
天空无云

METAR: KOTG 250456Z AUTO 26006KT 10SM CLR 26/24 A2968 RMK AO2 SLP039 T02560244 403440200

时间: 00:41 (05:41 UTC)


TAF: 丢失

超过4000个机场的气象观测和天气预报(METAR&TAF报告)。

可查询的气象台以黄色和红色小点在地图上表示。

将鼠标移到小点上方,可查看气象台名称。

然后点击查看天气观测和预报。

如需切换地图:点击带黑十字的绿色按钮放大地图;点击带横线的绿色按钮缩小地图;或者点击绿色箭头查看邻近地区的地图。


METAR-TAF: